Aérodrome :
LOGIN :

S'inscrire | Disclaimer

   EN    FR    IT 

 










Légende :    VFR   VFR Marginal   IFR   IFR Intensif   IFR Très Intensif
Visi : 
Plafond : 
>= 8 km
>= 3000ft
5 à 8 km
1000 à 3000 ft
1500m à 5 km
500 à 1000 ft
800 à 1500m
200 à 500 ft
< 800m
< 200 ft
Symboles :   Orages  Brouillard  Fortes neiges  Fortes précipitations  Vent > 20 kt
SIGMETs :   Divers  Orages  Givrage  Turbulence  Onde Orograph.  Cendres Volcan.







- Altitude de l'aérodrome : 13 ft
- Code IATA : OST


EBOS - Oostend bruges Int.

DERNIER METAR :
  • 191020Z 32012KT 9999 SCT025 08/03 Q1022 NOSIG

METARs EXPIRÉS :
  • 190950Z 32012KT 9999 SCT025 08/03 Q1022 NOSIG
  • 190920Z 32010KT 9999 SCT025 08/03 Q1021 NOSIG
  • 190850Z 31011KT 9999 SCT025 07/02 Q1021 NOSIG
  • 190820Z 31012KT 9999 SCT028 07/02 Q1021 NOSIG
  • 190750Z 32011KT 9999 FEW028 07/02 Q1021 NOSIG

TAF TAF EBOS
Valide du 19 à 06h jusqu'au 20 à 12h UTC


190500Z 1906/2012 33014KT 9999 FEW020 SCT035
TEMPO 1906/1913 33015G25KT
BECMG 2000/2002 21010KT
BECMG 2005/2007 21015G25KT SCT010 BKN014
TEMPO 2008/2012 4500 RADZ SCT006 BKN010
Pas de NOTAMs connus pour ce terrain.



MET'MAP, la Météo Aéronautique d'un coup d'oeil ! - Copyright ORBIFLY Décembre 2007 - Disclaimer

ORBIFLY MET'MAP TEAM :

Programmation & Développement : Alexandra Zaïnal
Conception & Développement : Baudouin d'Aumeries
Co-Programmation & Développement : Marc-Olivier Méhu
Soutien technique & logistique : Manuel Goepfert

Contact : metmap@orbifly.com




SOURCES & CREDITS :

   NOAA